Time;durP1;ratioP1;P1;durP2;ratioP2;P2;SDS_P1;SDS_P2;PMS_P1;PMS_P2;Temp;Humidity;BMP_temperature;BMP_pressure;BME280_temperature;BME280_humidity;BME280_pressure;Samples;Min_cycle;Max_cycle;Signal;HPM_P1;HPM_P2
2023/07/24 00:01:36;;;;;;;5.75;2.67;;;;;;;20.23;54.35;100044.19;7399037;19;20082;-68
2023/07/24 00:04:05;;;;;;;9.13;2.78;;;;;;;20.22;54.43;100035.34;7401769;19;20014;-68
2023/07/24 00:06:33;;;;;;;3.78;2.50;;;;;;;20.23;54.43;100044.19;7402259;19;20021;-67
2023/07/24 00:09:02;;;;;;;4.30;2.78;;;;;;;20.22;54.99;100035.34;7401129;19;20014;-67
2023/07/24 00:11:33;;;;;;;3.17;2.20;;;;;;;20.23;54.75;100036.19;7401649;19;20018;-68
2023/07/24 00:14:01;;;;;;;3.38;2.50;;;;;;;20.23;55.52;100036.19;7399142;19;20019;-68
2023/07/24 00:16:29;;;;;;;3.30;2.30;;;;;;;20.22;55.40;100024.69;7399075;19;20014;-68
2023/07/24 00:18:58;;;;;;;3.70;2.33;;;;;;;20.23;55.72;100034.38;7401446;19;20014;-67
2023/07/24 00:21:26;;;;;;;2.63;1.90;;;;;;;20.24;55.49;100029.91;7400806;19;20500;-67
2023/07/24 00:23:55;;;;;;;5.95;2.15;;;;;;;20.24;55.71;100017.44;7401279;19;20018;-68
2023/07/24 00:26:23;;;;;;;3.83;2.28;;;;;;;20.25;55.70;100015.63;7400841;19;20011;-68
2023/07/24 00:28:54;;;;;;;4.47;2.22;;;;;;;20.26;56.24;100014.69;7398304;19;20082;-67
2023/07/24 00:31:23;;;;;;;3.75;2.40;;;;;;;20.25;56.07;100016.47;7401437;19;20014;-68
2023/07/24 00:33:51;;;;;;;3.20;2.13;;;;;;;20.26;56.43;100020.84;7400713;19;20385;-68
2023/07/24 00:36:19;;;;;;;5.88;2.08;;;;;;;20.25;56.72;100019.13;7399465;19;20010;-68
2023/07/24 00:38:48;;;;;;;3.97;2.33;;;;;;;20.25;56.85;100012.97;7400513;19;20015;-68
2023/07/24 00:41:16;;;;;;;4.25;2.20;;;;;;;20.27;56.92;100019.00;7400369;19;20496;-68
2023/07/24 00:43:45;;;;;;;6.57;2.20;;;;;;;20.25;56.76;100016.47;7398396;19;20018;-68
2023/07/24 00:46:16;;;;;;;3.28;1.83;;;;;;;20.26;57.00;100012.84;7400388;19;20082;-67
2023/07/24 00:48:45;;;;;;;3.92;2.50;;;;;;;20.27;57.09;100011.03;7400057;19;20031;-67
2023/07/24 00:51:13;;;;;;;4.50;2.13;;;;;;;20.27;57.59;100008.34;7398067;19;20015;-68
2023/07/24 00:53:42;;;;;;;7.18;2.33;;;;;;;20.24;58.15;100001.44;7397708;19;20543;-68
2023/07/24 00:56:11;;;;;;;2.63;1.95;;;;;;;20.23;57.92;99999.75;7398813;19;20086;-68
2023/07/24 00:58:40;;;;;;;3.03;2.05;;;;;;;20.23;58.17;100002.41;7399919;19;20077;-66
2023/07/24 01:01:09;;;;;;;5.88;2.25;;;;;;;20.21;58.97;100004.34;7400224;19;20018;-67
2023/07/24 01:03:40;;;;;;;7.28;1.70;;;;;;;20.18;59.07;100002.75;7397998;19;20019;-67
2023/07/24 01:06:09;;;;;;;4.85;2.33;;;;;;;20.15;59.02;99999.47;7399995;19;20357;-68
2023/07/24 01:08:37;;;;;;;4.00;2.03;;;;;;;20.13;59.25;100002.25;7397657;19;20094;-69
2023/07/24 01:11:12;;;;;;;2.90;1.85;;;;;;;20.11;59.81;99998.84;7397381;19;20032;-68
2023/07/24 01:13:44;;;;;;;2.85;1.85;;;;;;;20.08;60.19;99985.78;7398246;19;20078;-67
2023/07/24 01:16:20;;;;;;;2.58;1.95;;;;;;;20.07;60.41;99991.19;7399758;19;20014;-68
2023/07/24 01:18:53;;;;;;;3.08;1.90;;;;;;;20.02;60.73;99984.41;7399837;19;20090;-67
2023/07/24 01:21:31;;;;;;;2.78;2.05;;;;;;;19.99;60.62;99978.44;7399445;19;20021;-67
2023/07/24 01:24:18;;;;;;;3.10;2.25;;;;;;;19.96;61.04;99979.53;7397470;19;20086;-68
2023/07/24 01:26:49;;;;;;;4.03;2.15;;;;;;;19.93;61.53;99971.78;7397258;19;20018;-67
2023/07/24 01:29:18;;;;;;;2.70;1.65;;;;;;;19.91;61.53;99979.00;7399180;19;20074;-67
2023/07/24 01:31:53;;;;;;;2.90;1.80;;;;;;;19.88;61.53;99983.69;7398840;19;20032;-67
2023/07/24 01:34:21;;;;;;;2.30;1.63;;;;;;;19.83;61.84;99986.72;7397025;19;20070;-67
2023/07/24 01:36:51;;;;;;;2.50;1.70;;;;;;;19.78;61.94;99973.72;7397192;19;20070;-67
2023/07/24 01:39:21;;;;;;;3.30;1.88;;;;;;;19.72;62.36;99968.81;7398835;19;20018;-66
2023/07/24 01:41:52;;;;;;;3.40;2.13;;;;;;;19.69;62.61;99969.91;7398586;19;20025;-66
2023/07/24 01:44:21;;;;;;;4.28;1.98;;;;;;;19.65;62.43;99968.44;7398805;19;20020;-67
2023/07/24 01:46:49;;;;;;;5.43;1.60;;;;;;;19.61;62.65;99966.09;7398419;19;20355;-67
2023/07/24 01:49:18;;;;;;;3.15;2.08;;;;;;;19.60;62.71;99972.38;7398228;19;20019;-67
2023/07/24 01:51:46;;;;;;;5.00;1.77;;;;;;;19.58;63.33;99977.81;7398010;19;20014;-67
2023/07/24 01:54:14;;;;;;;1.80;1.38;;;;;;;19.54;63.56;99971.00;7397877;19;20514;-68
2023/07/24 01:56:43;;;;;;;5.18;2.85;;;;;;;19.51;63.25;99960.56;7398406;19;20025;-68
2023/07/24 01:59:14;;;;;;;2.20;1.80;;;;;;;19.48;64.45;99971.44;7396966;19;20023;-68
2023/07/24 02:01:43;;;;;;;3.13;2.05;;;;;;;19.44;64.15;99977.94;7398210;19;20014;-68
2023/07/24 02:04:11;;;;;;;2.38;1.80;;;;;;;19.40;64.30;99973.78;7397821;19;20025;-68
2023/07/24 02:06:39;;;;;;;4.70;1.92;;;;;;;19.36;64.37;99975.81;7397989;19;20078;-68
2023/07/24 02:09:08;;;;;;;4.53;2.38;;;;;;;19.34;64.42;99969.78;7397726;19;20019;-68
2023/07/24 02:11:36;;;;;;;4.25;2.13;;;;;;;19.32;64.83;99971.69;7395989;19;20014;-68
2023/07/24 02:14:05;;;;;;;2.47;1.90;;;;;;;19.28;65.37;99973.69;7401716;19;20014;-67
2023/07/24 02:16:36;;;;;;;2.28;1.77;;;;;;;19.26;65.75;99972.09;7399573;19;20018;-67
2023/07/24 02:19:04;;;;;;;4.40;1.83;;;;;;;19.24;65.79;99955.44;7399207;19;20066;-68
2023/07/24 02:21:33;;;;;;;4.05;1.98;;;;;;;19.21;65.70;99954.69;7395979;19;20086;-66
2023/07/24 02:24:01;;;;;;;3.60;1.92;;;;;;;19.20;66.06;99952.97;7397075;19;20078;-68
2023/07/24 02:26:29;;;;;;;2.25;1.98;;;;;;;19.20;65.78;99963.59;7397294;19;20013;-67
2023/07/24 02:28:58;;;;;;;2.95;1.67;;;;;;;19.21;66.40;99964.47;7395382;19;20014;-67
2023/07/24 02:31:26;;;;;;;2.72;1.80;;;;;;;19.22;66.54;99958.19;7395423;19;20018;-67
2023/07/24 02:33:57;;;;;;;3.42;1.58;;;;;;;19.23;66.36;99967.84;7395147;19;20017;-67
2023/07/24 02:36:26;;;;;;;2.95;2.03;;;;;;;19.23;66.62;99970.50;7395963;19;20017;-67
2023/07/24 02:38:54;;;;;;;3.45;1.55;;;;;;;19.25;66.38;99967.78;7396692;19;20019;-67
2023/07/24 02:41:22;;;;;;;3.88;1.70;;;;;;;19.25;66.54;99973.09;7396673;19;20082;-68
2023/07/24 02:43:51;;;;;;;2.78;2.08;;;;;;;19.26;66.37;99978.28;7396284;19;20014;-68
2023/07/24 02:46:19;;;;;;;2.28;1.60;;;;;;;19.26;66.42;99970.31;7396182;19;20018;-68
2023/07/24 02:48:48;;;;;;;2.78;1.80;;;;;;;19.25;66.83;99968.63;7396182;19;20010;-68
2023/07/24 02:51:19;;;;;;;3.83;1.90;;;;;;;19.27;66.42;99969.38;7394921;19;20489;-68
2023/07/24 02:53:47;;;;;;;2.45;1.80;;;;;;;19.27;66.29;99977.34;7396263;19;20485;-68
2023/07/24 02:56:15;;;;;;;4.95;1.60;;;;;;;19.28;66.69;99981.69;7396114;19;20445;-69
2023/07/24 02:58:44;;;;;;;1.95;1.40;;;;;;;19.28;66.40;99994.13;7396302;19;20018;-68
2023/07/24 03:01:14;;;;;;;2.58;2.08;;;;;;;19.26;66.67;99983.63;7396212;19;20090;-67
2023/07/24 03:03:42;;;;;;;2.50;1.80;;;;;;;19.25;66.69;99979.25;7394573;19;20019;-67
2023/07/24 03:06:11;;;;;;;2.92;1.75;;;;;;;19.25;66.75;99986.38;7396034;19;20019;-68
2023/07/24 03:08:42;;;;;;;3.15;1.80;;;;;;;19.24;67.22;99992.66;7393990;19;20411;-67
2023/07/24 03:11:10;;;;;;;3.63;2.10;;;;;;;19.21;67.26;99986.59;7394545;19;20014;-69
2023/07/24 03:13:40;;;;;;;3.90;2.10;;;;;;;19.21;67.11;99986.59;7393440;19;20024;-68
2023/07/24 03:16:09;;;;;;;2.88;1.75;;;;;;;19.17;67.12;99985.09;7393922;19;20053;-68
2023/07/24 03:18:37;;;;;;;2.80;1.85;;;;;;;19.19;66.79;99982.34;7395439;19;20011;-68
2023/07/24 03:21:06;;;;;;;2.63;1.95;;;;;;;19.18;67.01;99984.16;7398853;19;20082;-68
2023/07/24 03:23:34;;;;;;;5.05;1.90;;;;;;;19.19;67.21;99982.34;7400318;19;20018;-68
2023/07/24 03:26:05;;;;;;;2.60;2.03;;;;;;;19.19;67.21;99998.28;7403923;19;20029;-69
2023/07/24 03:28:34;;;;;;;2.92;1.90;;;;;;;19.19;67.43;99987.66;7403144;19;20074;-68
2023/07/24 03:31:02;;;;;;;2.28;1.75;;;;;;;19.19;67.04;99982.34;7401204;19;20033;-68
2023/07/24 03:33:30;;;;;;;3.83;1.85;;;;;;;19.19;66.85;99985.84;7399742;19;20018;-67
2023/07/24 03:35:59;;;;;;;2.78;1.90;;;;;;;19.20;67.13;99984.03;7401494;19;20350;-67
2023/07/24 03:38:27;;;;;;;3.35;1.85;;;;;;;19.21;67.16;99986.59;7402886;19;20101;-68
2023/07/24 03:40:56;;;;;;;3.22;1.90;;;;;;;19.20;67.13;99984.88;7401950;19;20024;-67
2023/07/24 03:43:27;;;;;;;2.67;1.42;;;;;;;19.21;67.21;99985.75;7399256;19;20025;-68
2023/07/24 03:45:55;;;;;;;3.00;1.70;;;;;;;19.20;67.42;99986.69;7401537;19;20018;-68
2023/07/24 03:48:24;;;;;;;3.17;1.92;;;;;;;19.21;67.01;99988.41;7401698;19;20552;-68
2023/07/24 03:50:52;;;;;;;3.17;1.60;;;;;;;19.20;67.47;99978.72;7400480;19;20347;-68
2023/07/24 03:53:21;;;;;;;4.68;3.47;;;;;;;19.21;67.49;99985.75;7399362;19;20029;-69
2023/07/24 03:55:49;;;;;;;10.13;5.95;;;;;;;19.22;67.27;99979.44;7401941;19;20014;-69
2023/07/24 03:58:17;;;;;;;2.58;2.17;;;;;;;19.22;67.56;99979.44;7401374;19;20030;-68
2023/07/24 04:00:49;;;;;;;2.58;1.67;;;;;;;19.24;67.10;99987.34;7402157;19;20031;-68
2023/07/24 04:03:18;;;;;;;3.15;1.65;;;;;;;19.22;67.33;99976.78;7399545;19;20014;-68
2023/07/24 04:05:47;;;;;;;3.28;1.77;;;;;;;19.24;67.04;99974.88;7401397;19;20022;-68
2023/07/24 04:08:15;;;;;;;2.28;1.65;;;;;;;19.24;67.40;99969.56;7401179;19;20018;-68
2023/07/24 04:10:44;;;;;;;2.85;1.77;;;;;;;19.27;66.99;99965.84;7400552;19;20505;-68
2023/07/24 04:13:12;;;;;;;3.28;1.65;;;;;;;19.27;67.11;99973.81;7399175;19;20074;-68
2023/07/24 04:15:40;;;;;;;5.00;1.75;;;;;;;19.27;67.29;99972.03;7401786;19;20439;-68
2023/07/24 04:18:12;;;;;;;2.30;1.73;;;;;;;19.28;67.40;99965.72;7400811;19;20027;-68
2023/07/24 04:20:40;;;;;;;1.67;1.35;;;;;;;19.30;67.07;99968.28;7400253;19;20014;-67
2023/07/24 04:23:08;;;;;;;2.45;1.60;;;;;;;19.30;67.20;99968.28;7398685;19;20018;-67
2023/07/24 04:25:37;;;;;;;2.80;1.88;;;;;;;19.29;67.24;99967.44;7400787;19;20014;-67
2023/07/24 04:28:06;;;;;;;2.55;1.50;;;;;;;19.30;67.00;99955.84;7400297;19;20014;-67
2023/07/24 04:30:35;;;;;;;4.13;1.58;;;;;;;19.32;66.98;99959.25;7399118;19;20035;-68
2023/07/24 04:33:04;;;;;;;3.10;1.83;;;;;;;19.35;66.97;99964.34;7395827;19;20517;-67
2023/07/24 04:35:35;;;;;;;2.97;1.60;;;;;;;19.39;67.00;99962.31;7396958;19;20418;-67
2023/07/24 04:38:03;;;;;;;5.25;1.67;;;;;;;19.42;67.51;99969.22;7397415;19;20015;-68
2023/07/24 04:40:32;;;;;;;2.03;1.40;;;;;;;19.46;66.90;99962.72;7399123;19;20015;-67
2023/07/24 04:43:00;;;;;;;2.47;1.67;;;;;;;19.50;67.10;99961.56;7397040;19;20482;-68
2023/07/24 04:45:29;;;;;;;2.03;1.73;;;;;;;19.53;66.76;99963.97;7399333;19;20026;-68
2023/07/24 04:47:57;;;;;;;3.70;1.73;;;;;;;19.56;67.23;99963.75;7399470;19;20014;-67
2023/07/24 04:50:26;;;;;;;4.15;1.70;;;;;;;19.60;66.64;99953.75;7399034;19;20018;-67
2023/07/24 04:52:57;;;;;;;3.30;1.50;;;;;;;19.63;66.74;99953.53;7396425;19;20090;-67
2023/07/24 04:55:25;;;;;;;3.10;1.75;;;;;;;19.64;66.68;99950.75;7397011;19;20031;-67
2023/07/24 04:57:54;;;;;;;5.07;2.40;;;;;;;19.66;66.79;99943.53;7396677;19;20015;-67
2023/07/24 05:00:22;;;;;;;2.17;1.67;;;;;;;19.68;67.01;99941.59;7396956;19;20036;-67
2023/07/24 05:02:51;;;;;;;5.18;2.15;;;;;;;19.69;67.01;99945.94;7397963;19;20014;-67
2023/07/24 05:05:19;;;;;;;2.28;1.73;;;;;;;19.69;66.92;99942.44;7398744;19;20022;-67
2023/07/24 05:07:48;;;;;;;2.33;1.75;;;;;;;19.70;66.97;99941.47;7398952;19;20014;-67
2023/07/24 05:10:19;;;;;;;4.47;1.30;;;;;;;19.72;66.60;99941.38;7398476;19;20028;-68
2023/07/24 05:12:48;;;;;;;4.30;1.80;;;;;;;19.74;66.61;99934.13;7395614;19;20521;-67
2023/07/24 05:15:17;;;;;;;2.65;1.42;;;;;;;19.77;66.64;99931.25;7398888;19;20018;-67
2023/07/24 05:17:45;;;;;;;2.20;1.42;;;;;;;19.83;66.81;99922.84;7396861;19;20086;-67
2023/07/24 05:20:14;;;;;;;2.40;1.42;;;;;;;19.89;66.61;99930.38;7398615;19;20014;-66
2023/07/24 05:22:42;;;;;;;6.95;1.77;;;;;;;19.96;66.35;99930.75;7397055;19;20086;-67
2023/07/24 05:25:11;;;;;;;2.70;1.30;;;;;;;20.02;66.20;99922.31;7397478;19;20028;-67
2023/07/24 05:27:42;;;;;;;4.03;1.50;;;;;;;20.10;66.23;99919.94;7397972;19;20016;-68
2023/07/24 05:30:11;;;;;;;2.40;1.52;;;;;;;20.18;65.71;99927.34;7397260;19;20367;-65
2023/07/24 05:32:39;;;;;;;2.25;1.40;;;;;;;20.24;66.00;99921.56;7395417;19;20035;-66
2023/07/24 05:35:09;;;;;;;2.83;1.52;;;;;;;20.30;65.65;99926.41;7397469;19;20041;-65
2023/07/24 05:37:37;;;;;;;2.35;1.23;;;;;;;20.35;65.61;99928.75;7394716;19;20011;-67
2023/07/24 05:40:07;;;;;;;2.47;1.70;;;;;;;20.39;65.57;99924.03;7396957;19;20474;-68
2023/07/24 05:42:41;;;;;;;4.68;1.60;;;;;;;20.41;65.32;99919.41;7394974;19;20026;-68
2023/07/24 05:45:14;;;;;;;5.28;1.67;;;;;;;20.43;65.23;99914.84;7396398;19;20377;-68
2023/07/24 05:47:43;;;;;;;3.55;1.40;;;;;;;20.44;65.21;99922.69;7395070;19;20414;-65
2023/07/24 05:50:13;;;;;;;4.60;1.70;;;;;;;20.45;65.15;99912.91;7397030;19;20079;-66
2023/07/24 05:52:41;;;;;;;2.78;1.65;;;;;;;20.45;64.89;99919.06;7394883;19;20022;-66
2023/07/24 05:55:11;;;;;;;4.28;1.50;;;;;;;20.46;65.02;99914.59;7395646;19;20027;-66
2023/07/24 05:57:39;;;;;;;2.42;1.50;;;;;;;20.47;64.83;99913.63;7396731;19;20018;-66
2023/07/24 06:00:13;;;;;;;2.30;1.50;;;;;;;20.48;65.06;99902.00;7397199;19;20104;-66
2023/07/24 06:02:41;;;;;;;4.97;1.70;;;;;;;20.49;65.19;99895.72;7395923;19;20022;-66
2023/07/24 06:05:10;;;;;;;2.38;1.55;;;;;;;20.50;64.93;99897.41;7396673;19;20027;-67
2023/07/24 06:07:39;;;;;;;4.05;1.77;;;;;;;20.52;64.83;99895.47;7396318;19;20039;-66
2023/07/24 06:10:08;;;;;;;2.35;1.60;;;;;;;20.54;65.02;99885.56;7396594;19;20022;-67
2023/07/24 06:12:37;;;;;;;3.13;1.50;;;;;;;20.58;65.16;99896.81;7394424;19;20022;-65
2023/07/24 06:15:06;;;;;;;2.78;1.67;;;;;;;20.61;64.80;99894.78;7395887;19;20018;-65
2023/07/24 06:17:37;;;;;;;1.80;1.40;;;;;;;20.66;64.92;99894.41;7394399;19;20031;-65
2023/07/24 06:20:07;;;;;;;2.72;1.90;;;;;;;20.69;64.42;99888.84;7395484;19;20489;-67
2023/07/24 06:22:35;;;;;;;2.20;1.60;;;;;;;20.76;64.11;99894.56;7394870;19;20039;-67
2023/07/24 06:25:04;;;;;;;1.77;1.40;;;;;;;20.80;64.14;99901.34;7395646;19;20022;-66
2023/07/24 06:27:32;;;;;;;3.22;1.60;;;;;;;20.84;64.41;99894.84;7395067;19;20018;-66
2023/07/24 06:30:00;;;;;;;2.15;1.17;;;;;;;20.91;64.03;99892.53;7394451;19;20063;-66
2023/07/24 06:32:29;;;;;;;4.70;1.40;;;;;;;20.98;63.74;99891.91;7392941;19;20035;-66
2023/07/24 06:35:00;;;;;;;2.22;1.63;;;;;;;21.04;63.34;99882.59;7394996;19;20014;-66
2023/07/24 06:37:35;;;;;;;3.33;1.40;;;;;;;21.13;63.12;99870.34;7393713;19;20014;-66
2023/07/24 06:40:04;;;;;;;1.77;1.35;;;;;;;21.20;62.88;99871.53;7394661;19;20427;-65
2023/07/24 06:42:32;;;;;;;4.50;1.85;;;;;;;21.29;63.02;99883.28;7394151;19;20045;-65
2023/07/24 06:45:01;;;;;;;2.05;1.38;;;;;;;21.36;61.91;99880.97;7394319;19;20035;-65
2023/07/24 06:47:29;;;;;;;1.83;1.42;;;;;;;21.41;61.43;99881.47;7394700;19;20025;-66
2023/07/24 06:50:02;;;;;;;2.40;1.35;;;;;;;21.48;61.65;99875.50;7393713;19;20022;-66
2023/07/24 06:52:30;;;;;;;2.10;1.73;;;;;;;21.55;60.88;99865.19;7392676;19;20022;-66
2023/07/24 06:54:59;;;;;;;1.48;1.30;;;;;;;21.61;60.66;99856.69;7391890;19;20086;-65
2023/07/24 06:57:28;;;;;;;2.13;1.60;;;;;;;21.70;60.87;99867.56;7395363;19;20094;-66
2023/07/24 06:59:56;;;;;;;4.22;1.65;;;;;;;21.76;59.73;99867.91;7392179;19;20031;-65
2023/07/24 07:02:31;;;;;;;3.85;1.50;;;;;;;21.82;59.19;99855.88;7391914;19;20018;-66
2023/07/24 07:05:02;;;;;;;2.60;1.75;;;;;;;21.88;59.58;99857.19;7394080;19;20022;-65
2023/07/24 07:07:30;;;;;;;4.40;1.77;;;;;;;21.93;59.09;99844.31;7394095;19;20022;-64
2023/07/24 07:09:59;;;;;;;4.10;1.63;;;;;;;21.99;59.15;99835.78;7393387;19;20022;-65
2023/07/24 07:12:27;;;;;;;3.17;2.10;;;;;;;22.05;59.14;99829.06;7392491;19;20022;-65
2023/07/24 07:14:56;;;;;;;2.35;1.55;;;;;;;22.13;58.54;99837.28;7392320;19;20541;-65
2023/07/24 07:17:24;;;;;;;4.70;1.90;;;;;;;22.20;58.36;99843.78;7391773;19;20041;-65
2023/07/24 07:19:53;;;;;;;2.17;1.60;;;;;;;22.27;57.55;99842.28;7392780;19;20011;-65
2023/07/24 07:22:24;;;;;;;2.55;1.58;;;;;;;22.34;57.23;99849.78;7392751;19;20078;-66
2023/07/24 07:24:52;;;;;;;3.92;1.90;;;;;;;22.40;57.45;99847.44;7392123;19;20018;-66
2023/07/24 07:27:20;;;;;;;2.55;1.60;;;;;;;22.49;56.92;99855.66;7391569;19;20407;-66
2023/07/24 07:29:49;;;;;;;3.72;1.90;;;;;;;22.56;57.16;99860.34;7391223;19;20020;-66
2023/07/24 07:32:18;;;;;;;2.13;1.65;;;;;;;22.65;56.29;99849.84;7391734;19;20469;-66
2023/07/24 07:34:46;;;;;;;2.47;1.75;;;;;;;22.74;55.28;99859.72;7392084;19;20019;-65
2023/07/24 07:37:15;;;;;;;3.50;2.00;;;;;;;22.80;55.65;99837.81;7392203;19;20027;-65
2023/07/24 07:39:46;;;;;;;2.15;1.73;;;;;;;22.92;55.43;99842.09;7391944;19;20031;-65
2023/07/24 07:42:14;;;;;;;2.30;1.80;;;;;;;23.00;54.78;99836.06;7391784;19;20129;-65
2023/07/24 07:44:43;;;;;;;2.10;1.90;;;;;;;23.09;54.74;99837.06;7393267;19;20018;-66
2023/07/24 07:47:11;;;;;;;3.45;1.63;;;;;;;23.14;53.99;99845.53;7393362;19;20035;-66
2023/07/24 07:49:41;;;;;;;5.50;1.70;;;;;;;23.17;54.19;99834.56;7393079;19;20031;-66
2023/07/24 07:52:10;;;;;;;2.60;1.60;;;;;;;23.22;54.28;99824.31;7390763;19;20015;-66
2023/07/24 07:54:38;;;;;;;1.92;1.35;;;;;;;23.32;53.61;99834.19;7393194;19;20015;-66
2023/07/24 07:57:09;;;;;;;2.80;1.92;;;;;;;23.41;53.85;99838.72;7393029;19;20019;-66
2023/07/24 07:59:38;;;;;;;3.17;1.80;;;;;;;23.49;53.31;99827.31;7392773;19;20391;-66
2023/07/24 08:02:07;;;;;;;2.03;1.58;;;;;;;23.59;52.91;99825.47;7391657;19;20018;-66
2023/07/24 08:04:35;;;;;;;2.85;1.63;;;;;;;23.64;52.96;99822.38;7389923;19;20023;-66
2023/07/24 08:07:04;;;;;;;2.83;1.70;;;;;;;23.71;52.34;99823.53;7394769;19;20420;-66
2023/07/24 08:09:33;;;;;;;4.78;1.60;;;;;;;23.78;52.54;99808.56;7399199;19;20410;-64
2023/07/24 08:12:02;;;;;;;3.10;1.77;;;;;;;23.86;52.03;99827.47;7398957;19;20099;-66
2023/07/24 08:14:33;;;;;;;3.72;1.60;;;;;;;23.89;51.48;99824.47;7397638;19;20026;-67
2023/07/24 08:17:01;;;;;;;2.00;1.73;;;;;;;23.96;51.84;99835.53;7399618;19;20043;-66
2023/07/24 08:19:30;;;;;;;2.67;1.88;;;;;;;24.01;51.12;99840.44;7399780;19;20035;-66
2023/07/24 08:21:59;;;;;;;2.35;1.92;;;;;;;24.00;51.47;99838.75;7398946;19;20019;-65
2023/07/24 08:24:27;;;;;;;4.50;2.35;;;;;;;24.01;50.64;99835.06;7399615;19;20428;-67
2023/07/24 08:26:56;;;;;;;2.25;1.77;;;;;;;23.96;50.50;99832.84;7399181;19;20019;-66
2023/07/24 08:29:24;;;;;;;3.20;1.90;;;;;;;23.97;50.99;99839.03;7401005;19;20026;-66
2023/07/24 08:31:55;;;;;;;3.67;1.90;;;;;;;23.99;51.38;99832.56;7402073;19;20015;-66
2023/07/24 08:34:24;;;;;;;3.55;2.00;;;;;;;24.04;51.27;99813.38;7399770;19;20022;-67
2023/07/24 08:36:52;;;;;;;3.65;2.38;;;;;;;24.10;51.41;99811.94;7398519;19;20024;-67
2023/07/24 08:39:21;;;;;;;2.50;2.20;;;;;;;24.15;50.93;99810.53;7397034;19;20143;-66
2023/07/24 08:41:49;;;;;;;4.97;2.38;;;;;;;24.21;50.94;99793.88;7396746;19;20035;-64
2023/07/24 08:44:19;;;;;;;3.30;2.33;;;;;;;24.26;50.40;99800.63;7399837;19;20026;-65
2023/07/24 08:46:48;;;;;;;4.07;2.38;;;;;;;24.33;50.65;99791.03;7397478;19;20022;-67
2023/07/24 08:49:19;;;;;;;6.00;2.38;;;;;;;24.42;50.46;99784.78;7396705;19;20021;-66
2023/07/24 08:51:49;;;;;;;3.97;2.58;;;;;;;24.51;50.27;99788.41;7398391;19;20485;-66
2023/07/24 08:54:19;;;;;;;2.90;2.22;;;;;;;24.59;49.82;99780.47;7398844;19;20415;-66
2023/07/24 08:56:50;;;;;;;4.78;2.33;;;;;;;24.66;50.01;99775.41;7398634;19;20011;-66
2023/07/24 08:59:18;;;;;;;2.63;2.17;;;;;;;24.76;49.46;99784.25;7396596;19;20037;-65
2023/07/24 09:01:47;;;;;;;8.98;2.53;;;;;;;24.88;49.17;99771.47;7398054;19;20367;-66
2023/07/24 09:04:18;;;;;;;3.42;2.33;;;;;;;24.98;48.76;99779.47;7399037;19;20107;-67
2023/07/24 09:06:48;;;;;;;4.30;2.50;;;;;;;25.07;48.00;99789.28;7397825;19;20485;-66
2023/07/24 09:09:17;;;;;;;4.22;2.20;;;;;;;25.13;47.54;99780.63;7398148;19;20477;-65
2023/07/24 09:11:49;;;;;;;4.40;2.65;;;;;;;25.17;46.86;99771.31;7397453;19;20019;-67
2023/07/24 09:14:28;;;;;;;3.13;2.50;;;;;;;25.21;45.87;99753.91;7398298;19;20031;-66
2023/07/24 09:17:07;;;;;;;3.70;2.55;;;;;;;25.25;45.61;99764.31;7398223;19;20021;-66
2023/07/24 09:19:39;;;;;;;4.13;2.75;;;;;;;25.29;46.52;99763.03;7395799;19;20018;-65
2023/07/24 09:22:13;;;;;;;7.35;2.97;;;;;;;25.32;45.80;99762.72;7396265;19;20011;-66
2023/07/24 09:24:52;;;;;;;5.07;2.70;;;;;;;25.34;45.61;99766.94;7398424;19;20387;-66
2023/07/24 09:27:21;;;;;;;4.35;2.35;;;;;;;25.35;45.83;99763.25;7395751;19;20067;-66
2023/07/24 09:29:49;;;;;;;4.55;2.40;;;;;;;25.38;45.75;99767.50;7395438;19;20037;-67
2023/07/24 09:32:24;;;;;;;3.20;2.63;;;;;;;25.44;45.62;99763.34;7396920;19;20035;-65
2023/07/24 09:34:56;;;;;;;3.58;2.45;;;;;;;25.49;45.26;99771.78;7395817;19;20035;-67
2023/07/24 09:37:35;;;;;;;6.13;2.83;;;;;;;25.54;45.59;99769.50;7394689;19;20478;-67
2023/07/24 09:40:06;;;;;;;3.55;2.50;;;;;;;25.58;44.60;99759.28;7397338;19;20018;-65
2023/07/24 09:42:37;;;;;;;4.35;2.40;;;;;;;25.64;44.80;99750.59;7395385;19;20100;-66
2023/07/24 09:45:08;;;;;;;5.30;2.50;;;;;;;25.70;44.30;99747.28;7395901;19;20031;-67
2023/07/24 09:47:37;;;;;;;5.82;2.97;;;;;;;25.75;43.60;99753.03;7395986;19;20087;-66
2023/07/24 09:50:09;;;;;;;3.75;2.72;;;;;;;25.76;42.69;99745.84;7396141;19;20019;-66
2023/07/24 09:52:39;;;;;;;4.00;2.97;;;;;;;25.79;43.62;99732.09;7395733;19;20098;-66
2023/07/24 09:55:13;;;;;;;5.57;3.20;;;;;;;25.82;43.56;99729.94;7397365;19;20019;-66
2023/07/24 09:57:43;;;;;;;2.92;2.33;;;;;;;25.91;43.29;99727.28;7396901;19;20031;-66
2023/07/24 10:00:14;;;;;;;3.88;2.95;;;;;;;25.96;43.15;99722.31;7396743;19;20396;-67
2023/07/24 10:02:43;;;;;;;4.75;3.38;;;;;;;26.00;42.95;99721.81;7395332;19;20021;-67
2023/07/24 10:05:14;;;;;;;3.95;2.78;;;;;;;26.07;42.39;99711.31;7396556;19;20031;-68
2023/07/24 10:07:44;;;;;;;3.95;2.92;;;;;;;26.13;42.64;99710.66;7396321;19;20039;-67
2023/07/24 10:10:13;;;;;;;4.43;3.40;;;;;;;26.20;41.84;99705.50;7396530;19;20035;-67
2023/07/24 10:12:42;;;;;;;3.95;2.95;;;;;;;26.26;42.01;99702.19;7394362;19;20506;-67
2023/07/24 10:15:11;;;;;;;4.50;2.80;;;;;;;26.36;41.52;99706.56;7394894;19;20018;-67
2023/07/24 10:17:40;;;;;;;5.25;3.63;;;;;;;26.47;41.50;99684.78;7396427;19;20018;-67
2023/07/24 10:20:12;;;;;;;5.80;3.28;;;;;;;26.57;40.81;99692.72;7396551;19;20035;-67
2023/07/24 10:22:44;;;;;;;6.47;3.35;;;;;;;26.64;40.61;99685.66;7395388;19;20032;-66
2023/07/24 10:25:12;;;;;;;5.72;3.85;;;;;;;26.70;40.35;99687.69;7395698;19;20014;-67
2023/07/24 10:27:46;;;;;;;4.03;3.10;;;;;;;26.75;40.56;99680.00;7395908;19;20018;-67
2023/07/24 10:30:15;;;;;;;;;;;;;;;26.75;39.96;99674.63;7397495;19;20014;-66
2023/07/24 10:32:49;;;;;;;4.20;3.05;;;;;;;26.76;39.66;99672.78;7393730;19;19941;-67
2023/07/24 10:35:20;;;;;;;4.82;3.60;;;;;;;26.78;39.91;99655.47;7395626;19;20011;-67
2023/07/24 10:38:02;;;;;;;4.95;3.30;;;;;;;26.83;38.82;99653.13;7394827;19;20012;-67
2023/07/24 10:40:30;;;;;;;4.28;3.45;;;;;;;26.94;39.15;99656.50;7393679;19;20426;-68
2023/07/24 10:43:03;;;;;;;6.90;3.80;;;;;;;27.06;38.92;99657.84;7394505;19;20015;-69
2023/07/24 10:45:41;;;;;;;6.00;4.00;;;;;;;27.15;38.15;99656.84;7394152;19;20027;-69
2023/07/24 10:48:11;;;;;;;5.88;3.90;;;;;;;27.23;38.84;99642.53;7395357;19;20011;-68
2023/07/24 10:50:41;;;;;;;7.40;4.00;;;;;;;27.34;38.40;99637.84;7394517;19;20015;-67
2023/07/24 10:53:13;;;;;;;5.63;3.80;;;;;;;27.44;38.47;99636.66;7393677;19;20095;-68
2023/07/24 10:55:41;;;;;;;6.90;4.20;;;;;;;27.56;37.82;99636.31;7393487;19;20353;-69
2023/07/24 10:58:11;;;;;;;8.35;3.97;;;;;;;27.68;37.68;99634.13;7393479;19;20473;-69
2023/07/24 11:00:41;;;;;;;6.95;4.18;;;;;;;27.78;36.91;99624.00;7393777;19;20502;-68
2023/07/24 11:03:12;;;;;;;5.80;4.43;;;;;;;27.88;37.15;99615.69;7396104;19;20086;-71
2023/07/24 11:05:42;;;;;;;8.07;3.83;;;;;;;27.94;37.17;99620.38;7395681;19;20014;-70
2023/07/24 11:08:17;;;;;;;6.82;3.90;;;;;;;28.01;36.46;99612.47;7394374;19;20014;-70
2023/07/24 11:10:50;;;;;;;9.02;4.25;;;;;;;28.07;36.08;99609.09;7392650;19;20018;-71
2023/07/24 11:13:19;;;;;;;5.25;4.03;;;;;;;28.15;36.49;99592.88;7392573;19;20022;-69
2023/07/24 11:15:48;;;;;;;7.43;4.10;;;;;;;28.23;36.11;99597.38;7394456;19;20032;-71
2023/07/24 11:18:16;;;;;;;6.50;3.67;;;;;;;28.27;36.12;99602.25;7392628;19;20078;-69
2023/07/24 11:20:50;;;;;;;4.82;4.25;;;;;;;28.28;35.23;99584.19;7391852;19;20342;-70
2023/07/24 11:23:22;;;;;;;5.50;3.63;;;;;;;28.37;36.00;99588.56;7393325;19;20033;-69
2023/07/24 11:25:54;;;;;;;6.65;3.95;;;;;;;28.42;35.26;99572.69;7394951;19;20036;-71
2023/07/24 11:28:23;;;;;;;5.10;3.88;;;;;;;28.46;35.35;99575.88;7392314;19;20019;-69
2023/07/24 11:30:51;;;;;;;5.80;4.53;;;;;;;28.46;34.91;99567.78;7393529;19;20018;-70
2023/07/24 11:33:20;;;;;;;5.80;4.25;;;;;;;28.47;35.29;99568.59;7391642;19;20426;-70
2023/07/24 11:35:49;;;;;;;4.25;3.55;;;;;;;28.48;35.35;99575.69;7393839;19;20027;-69
2023/07/24 11:38:22;;;;;;;6.30;3.88;;;;;;;28.46;35.59;99567.78;7391858;19;20010;-69
2023/07/24 11:40:50;;;;;;;5.82;3.92;;;;;;;28.45;34.86;99566.91;7394995;19;20031;-69
2023/07/24 11:43:20;;;;;;;5.10;4.13;;;;;;;28.42;35.31;99559.19;7398656;19;20026;-69